createdAt,value
2017-08-27T00:02:21.060Z,34.73
2017-08-27T06:19:07.850Z,64.23
2017-08-27T06:21:35.962Z,61.70
2017-08-27T06:24:03.551Z,59.53
2017-08-27T06:26:31.317Z,58.27
2017-08-27T06:28:59.301Z,61.77
2017-08-27T06:31:26.862Z,58.67
2017-08-27T06:33:56.238Z,59.33
2017-08-27T06:36:24.088Z,58.00
2017-08-27T06:38:52.770Z,60.00
2017-08-27T06:41:21.110Z,58.07
2017-08-27T06:43:49.769Z,54.83
2017-08-27T06:46:17.622Z,56.60
2017-08-27T06:48:45.562Z,58.80
2017-08-27T06:51:13.379Z,55.30
2017-08-27T06:53:40.852Z,51.60
2017-08-27T06:56:09.160Z,51.63
2017-08-27T06:58:36.736Z,48.97
2017-08-27T07:01:04.255Z,51.07
2017-08-27T07:03:32.879Z,50.63
2017-08-27T07:06:01.283Z,49.73
2017-08-27T07:08:29.428Z,46.50
2017-08-27T07:10:56.945Z,52.50
2017-08-27T07:13:24.499Z,48.17
2017-08-27T07:15:52.098Z,45.80
2017-08-27T07:18:20.031Z,45.10
2017-08-27T07:20:48.074Z,44.53
2017-08-27T07:23:15.648Z,34.27
2017-08-27T07:25:46.608Z,33.00
2017-08-27T07:28:19.698Z,40.70
2017-08-27T07:30:48.370Z,34.00
2017-08-27T07:33:16.074Z,23.50
2017-08-27T07:35:43.545Z,25.60
2017-08-27T07:38:13.624Z,22.57
2017-08-27T07:40:41.702Z,22.60
2017-08-27T07:43:12.487Z,24.53
2017-08-27T07:45:41.808Z,23.53
2017-08-27T07:48:10.600Z,24.23
2017-08-27T07:50:39.248Z,23.37
2017-08-27T07:53:07.069Z,24.43
2017-08-27T07:55:36.705Z,25.73
2017-08-27T07:58:04.685Z,20.87
2017-08-27T08:00:32.759Z,23.07
2017-08-27T08:03:00.982Z,23.77
2017-08-27T08:05:30.387Z,22.90
2017-08-27T08:07:58.443Z,20.73
2017-08-27T08:10:26.652Z,20.73
2017-08-27T08:12:56.711Z,18.63
2017-08-27T08:15:24.693Z,19.77
2017-08-27T08:17:52.854Z,19.63
2017-08-27T08:20:33.963Z,31.53
2017-08-27T08:23:01.960Z,17.63
2017-08-27T08:25:30.583Z,20.37
2017-08-27T08:27:58.594Z,22.70
2017-08-27T08:30:26.615Z,22.20
2017-08-27T08:32:54.244Z,17.83
2017-08-27T08:35:22.344Z,20.03
2017-08-27T08:37:50.402Z,23.30
2017-08-27T08:40:18.651Z,15.87
2017-08-27T08:42:46.413Z,17.13
2017-08-27T08:45:18.776Z,15.40
2017-08-27T08:47:53.784Z,13.80
2017-08-27T08:50:22.475Z,15.30
2017-08-27T08:52:58.527Z,14.57
2017-08-27T08:55:27.631Z,16.77
2017-08-27T08:57:58.694Z,14.80
2017-08-27T09:00:26.817Z,15.17
2017-08-27T09:02:57.111Z,15.20
2017-08-27T09:05:25.009Z,13.73
2017-08-27T09:07:52.891Z,11.87
2017-08-27T09:10:20.744Z,11.50
2017-08-27T09:12:49.033Z,7.67
2017-08-27T09:15:19.385Z,10.40
2017-08-27T09:17:47.738Z,10.97
2017-08-27T09:20:15.651Z,10.90
2017-08-27T09:22:44.050Z,9.50
2017-08-27T09:25:12.018Z,12.70
2017-08-27T09:27:40.637Z,12.87
2017-08-27T09:30:11.643Z,7.27
2017-08-27T09:32:39.480Z,6.20
2017-08-27T09:35:13.999Z,8.23
2017-08-27T09:37:45.469Z,9.10
2017-08-27T09:40:14.453Z,5.53
2017-08-27T09:42:54.079Z,5.20
2017-08-27T09:45:27.316Z,6.13
2017-08-27T09:47:56.774Z,6.87
2017-08-27T09:50:26.796Z,6.83
2017-08-27T09:53:06.448Z,5.83
2017-08-27T09:55:39.232Z,6.37
2017-08-27T09:58:13.055Z,5.27
2017-08-27T10:00:44.297Z,4.87
2017-08-27T10:03:12.317Z,2.70
2017-08-27T10:05:42.048Z,7.97
2017-08-27T10:08:12.911Z,3.13
2017-08-27T10:10:44.867Z,3.53
2017-08-27T10:21:24.729Z,4.07
2017-08-27T10:24:03.086Z,2.83
2017-08-27T19:46:50.011Z,8.50
2017-08-27T19:49:18.001Z,15.80
2017-08-27T19:51:47.332Z,9.73
2017-08-27T19:54:16.251Z,9.10
2017-08-27T19:56:45.806Z,11.73
2017-08-27T19:59:19.154Z,13.33
2017-08-27T20:01:47.792Z,11.07
2017-08-27T20:04:17.518Z,10.50
2017-08-27T20:06:46.864Z,10.47
2017-08-27T20:09:23.381Z,8.13
2017-08-27T20:11:54.485Z,9.80
2017-08-27T20:14:22.441Z,10.87
2017-08-27T20:16:51.345Z,8.47
2017-08-27T20:19:20.259Z,8.77
2017-08-27T20:21:49.677Z,10.83
2017-08-27T20:24:19.679Z,14.60
2017-08-27T20:26:51.495Z,11.47
2017-08-27T20:29:20.928Z,10.00
2017-08-27T20:31:59.076Z,8.33
2017-08-27T20:34:30.526Z,11.47
2017-08-27T20:37:03.261Z,14.13
2017-08-27T20:39:36.914Z,13.83
2017-08-27T20:42:11.429Z,9.00
2017-08-27T20:45:06.473Z,9.67
2017-08-27T20:48:29.342Z,13.30
2017-08-27T20:51:02.769Z,9.93
2017-08-27T20:53:41.341Z,13.77
2017-08-27T20:56:12.288Z,11.27
2017-08-27T20:58:48.695Z,10.87
2017-08-27T21:01:29.483Z,24.53
2017-08-27T21:04:12.764Z,13.87
2017-08-27T21:06:55.895Z,14.47
2017-08-27T21:09:27.160Z,12.80
2017-08-27T21:12:00.269Z,15.27
2017-08-27T21:15:04.265Z,13.77
2017-08-27T21:17:35.983Z,15.17
2017-08-27T21:20:06.139Z,9.80
2017-08-27T21:22:35.446Z,12.60
2017-08-27T21:25:03.657Z,10.57
2017-08-27T21:27:33.989Z,10.80
2017-08-27T21:30:06.157Z,12.80
2017-08-27T21:32:33.824Z,12.23
2017-08-27T21:35:04.879Z,10.60
2017-08-27T21:37:35.497Z,11.80
2017-08-27T21:40:06.126Z,9.13
2017-08-27T21:42:40.225Z,10.10
2017-08-27T21:45:08.076Z,11.93
2017-08-27T21:47:37.610Z,11.13
2017-08-27T21:50:05.991Z,11.07
2017-08-27T21:52:39.972Z,9.40
2017-08-27T21:55:08.491Z,8.40
2017-08-27T21:57:37.152Z,10.27
2017-08-27T22:00:06.951Z,10.17
2017-08-27T22:02:36.620Z,10.63
2017-08-27T22:05:05.132Z,12.93
2017-08-27T22:07:34.603Z,9.23
2017-08-27T22:10:05.466Z,13.33
2017-08-27T22:12:34.613Z,10.07
2017-08-27T22:15:11.300Z,8.60
2017-08-27T22:17:39.253Z,11.50
2017-08-27T22:20:07.389Z,12.87
2017-08-27T22:22:35.430Z,11.40
2017-08-27T22:25:03.126Z,10.30
2017-08-27T22:27:31.061Z,21.50
2017-08-27T22:29:58.700Z,10.67
2017-08-27T22:32:26.741Z,11.93
2017-08-27T22:34:54.965Z,8.33
2017-08-27T22:37:23.286Z,8.90
2017-08-27T22:39:50.849Z,8.50
2017-08-27T22:42:18.539Z,9.33
2017-08-27T22:44:46.839Z,8.27
2017-08-27T22:47:14.498Z,13.20
2017-08-27T22:49:42.238Z,7.50
2017-08-27T22:52:13.028Z,8.80
2017-08-27T22:54:40.590Z,13.10
2017-08-27T22:57:08.735Z,9.50
2017-08-27T22:59:36.913Z,12.47
2017-08-27T23:02:04.882Z,9.33
2017-08-27T23:04:32.525Z,11.23
2017-08-27T23:07:00.196Z,11.13
2017-08-27T23:09:28.879Z,13.10
2017-08-27T23:11:56.720Z,10.40
2017-08-27T23:14:24.461Z,10.93
2017-08-27T23:16:52.629Z,12.60
2017-08-27T23:19:21.634Z,11.60
2017-08-27T23:21:50.547Z,11.60
2017-08-27T23:24:19.111Z,13.20
2017-08-27T23:26:46.747Z,10.90
2017-08-27T23:29:16.834Z,10.10
2017-08-27T23:31:46.282Z,9.40
2017-08-27T23:34:15.064Z,11.20
2017-08-27T23:36:44.285Z,12.60
2017-08-27T23:39:12.686Z,11.83
2017-08-27T23:44:39.070Z,11.83
2017-08-27T23:47:09.517Z,13.57
2017-08-27T23:49:38.490Z,11.40
2017-08-27T23:52:08.671Z,17.27
2017-08-27T23:54:37.377Z,9.67
2017-08-27T23:57:09.182Z,8.90
2017-08-27T23:59:37.838Z,10.60
